High Prairie, Canada
Current Conditions -  °F | °C
As of 11:00 PM on Friday 28 Nov 2014 (Local Time) from CYPE Reporting Station
Clear Clear  
Wind Chill: -47°   Ceiling: Unl
Heat Index: -26°   Visibility: 15mi
Dew Point: -31°   Wind: 9mph
Humidity: 76%   Direction: 210°SSW
Pressure: 29.96"   Gusts: NA
Location:  55.43°N, 116.48°W
Report Text: CYPE 290600Z 21008KT 15SM SKC M32/M35 A2996 RMK SLP217
Loading
Personal Weather Stations






























Interactive Weather Map New forecast layout! Learn more

10-Day Weather Forecast

Advertisements
Track Severe Weather on mobile